Time;durP1;ratioP1;P1;durP2;ratioP2;P2;SDS_P1;SDS_P2;PMS_P1;PMS_P2;Temp;Humidity;BMP_temperature;BMP_pressure;BME280_temperature;BME280_humidity;BME280_pressure;Samples;Min_cycle;Max_cycle;Signal;HPM_P1;HPM_P2
2023/07/02 00:01:12;;;;;;;25.30;11.48;;;16.30;92.20;;;;;;4876678;28;88339;-74
2023/07/02 00:03:38;;;;;;;23.92;11.15;;;16.30;92.40;;;;;;4876832;28;87694;-74
2023/07/02 00:06:05;;;;;;;26.75;11.52;;;16.20;92.30;;;;;;4878334;28;87530;-74
2023/07/02 00:08:30;;;;;;;29.95;12.38;;;16.20;92.30;;;;;;4876457;28;87664;-74
2023/07/02 00:10:56;;;;;;;28.02;11.57;;;16.20;92.40;;;;;;4877591;28;88376;-74
2023/07/02 00:13:21;;;;;;;23.33;12.50;;;16.20;92.30;;;;;;4877762;28;87570;-74
2023/07/02 00:15:47;;;;;;;33.78;12.55;;;16.20;92.30;;;;;;4877440;28;87885;-74
2023/07/02 00:18:16;;;;;;;28.95;12.90;;;16.20;92.30;;;;;;4876802;28;87887;-74
2023/07/02 00:20:42;;;;;;;30.33;11.57;;;16.20;92.20;;;;;;4875147;28;89728;-74
2023/07/02 00:23:09;;;;;;;27.65;13.95;;;16.20;92.20;;;;;;4874623;28;89385;-74
2023/07/02 00:25:38;;;;;;;27.75;12.63;;;16.20;92.30;;;;;;4874699;28;87623;-73
2023/07/02 00:28:03;;;;;;;28.33;12.45;;;16.10;92.40;;;;;;4873867;28;89399;-74
2023/07/02 00:30:29;;;;;;;30.25;12.75;;;16.10;92.50;;;;;;4874310;28;88271;-74
2023/07/02 00:32:55;;;;;;;29.98;11.98;;;16.10;92.50;;;;;;4875131;28;88290;-74
2023/07/02 00:35:21;;;;;;;27.15;12.25;;;16.10;92.40;;;;;;4874960;28;87846;-74
2023/07/02 00:37:47;;;;;;;31.65;13.75;;;16.10;92.50;;;;;;4875768;28;88092;-74
2023/07/02 00:40:13;;;;;;;29.35;12.95;;;16.10;92.50;;;;;;4874477;28;88518;-74
2023/07/02 00:42:38;;;;;;;28.95;13.75;;;16.10;92.50;;;;;;4874065;28;88000;-74
2023/07/02 00:45:05;;;;;;;28.95;12.98;;;16.10;92.40;;;;;;4874271;28;88547;-74
2023/07/02 00:47:32;;;;;;;33.47;15.27;;;16.10;92.50;;;;;;4875452;28;88886;-74
2023/07/02 00:49:58;;;;;;;39.58;14.18;;;16.00;92.50;;;;;;4873304;28;88477;-74
2023/07/02 00:52:25;;;;;;;34.13;14.02;;;16.00;92.40;;;;;;4875122;28;87977;-74
2023/07/02 00:54:51;;;;;;;33.65;14.30;;;16.00;92.50;;;;;;4874519;28;87825;-74
2023/07/02 00:57:17;;;;;;;30.35;13.93;;;16.00;92.50;;;;;;4875575;28;89061;-74
2023/07/02 00:59:43;;;;;;;34.00;14.20;;;16.00;92.50;;;;;;4873787;28;89441;-74
2023/07/02 01:02:08;;;;;;;37.78;15.18;;;15.90;92.60;;;;;;4875637;28;87989;-74
2023/07/02 01:04:34;;;;;;;31.23;14.25;;;15.90;92.60;;;;;;4875269;28;87608;-74
2023/07/02 01:07:00;;;;;;;35.63;14.95;;;15.90;92.60;;;;;;4873260;28;87249;-74
2023/07/02 01:09:26;;;;;;;32.92;14.30;;;15.90;92.60;;;;;;4875794;28;89494;-74
2023/07/02 01:12:00;;;;;;;37.50;15.32;;;15.90;92.70;;;;;;4874788;28;88855;-74
2023/07/02 01:14:25;;;;;;;32.63;15.15;;;15.80;92.80;;;;;;4875312;28;87973;-74
2023/07/02 01:16:53;;;;;;;35.13;16.15;;;15.80;92.70;;;;;;4875463;28;87866;-74
2023/07/02 01:19:41;;;;;;;30.67;15.70;;;15.80;92.80;;;;;;4875003;28;88427;-74
2023/07/02 01:22:08;;;;;;;33.85;15.80;;;15.80;92.80;;;;;;4874963;28;88233;-74
2023/07/02 01:24:34;;;;;;;37.28;15.82;;;15.80;92.90;;;;;;4874223;28;87764;-74
2023/07/02 01:27:01;;;;;;;37.47;16.58;;;15.80;92.90;;;;;;4875560;28;86595;-74
2023/07/02 01:29:29;;;;;;;34.95;16.13;;;15.80;92.80;;;;;;4875135;28;88849;-74
2023/07/02 01:31:56;;;;;;;37.45;16.98;;;15.80;92.90;;;;;;4874450;28;88246;-74
2023/07/02 01:34:22;;;;;;;40.38;15.70;;;15.80;93.00;;;;;;4874435;28;88659;-74
2023/07/02 01:36:47;;;;;;;31.95;15.43;;;15.80;93.00;;;;;;4877032;28;87929;-74
2023/07/02 01:39:13;;;;;;;36.92;16.90;;;15.80;93.10;;;;;;4879066;28;88761;-74
2023/07/02 01:41:49;;;;;;;32.17;16.67;;;15.70;92.90;;;;;;4878294;28;89292;-74
2023/07/02 01:44:15;;;;;;;37.70;17.77;;;15.80;93.10;;;;;;4878118;28;87712;-74
2023/07/02 01:46:41;;;;;;;35.53;17.27;;;15.80;93.10;;;;;;4877430;28;88003;-74
2023/07/02 01:49:06;;;;;;;38.78;17.77;;;15.80;93.20;;;;;;4878711;28;88615;-74
2023/07/02 01:51:33;;;;;;;42.65;16.75;;;15.80;93.20;;;;;;4877908;28;87716;-74
2023/07/02 01:54:00;;;;;;;39.42;18.10;;;15.70;93.20;;;;;;4878194;28;87918;-74
2023/07/02 01:56:26;;;;;;;38.03;17.10;;;15.70;93.30;;;;;;4878490;28;87698;-74
2023/07/02 01:58:52;;;;;;;35.72;17.63;;;15.70;93.20;;;;;;4877046;28;89543;-74
2023/07/02 02:01:18;;;;;;;37.90;18.45;;;15.70;93.30;;;;;;4878005;28;89323;-74
2023/07/02 02:03:44;;;;;;;42.92;18.13;;;15.70;93.30;;;;;;4877544;28;87563;-74
2023/07/02 02:06:09;;;;;;;36.47;17.75;;;15.70;93.40;;;;;;4878519;28;88322;-74
2023/07/02 02:08:35;;;;;;;44.58;18.27;;;15.70;93.30;;;;;;4877717;28;88964;-74
2023/07/02 02:11:00;;;;;;;42.25;18.08;;;15.60;93.30;;;;;;4877142;28;88308;-74
2023/07/02 02:13:26;;;;;;;39.08;18.83;;;15.60;93.50;;;;;;4877430;28;88007;-74
2023/07/02 02:15:54;;;;;;;40.25;18.55;;;15.60;93.40;;;;;;4877491;28;87663;-74
2023/07/02 02:18:19;;;;;;;41.65;19.45;;;15.60;93.50;;;;;;4878779;28;87994;-74
2023/07/02 02:20:45;;;;;;;46.17;19.25;;;15.70;93.60;;;;;;4876362;28;89150;-74
2023/07/02 02:23:11;;;;;;;40.65;19.65;;;15.60;93.40;;;;;;4876763;28;88775;-74
2023/07/02 02:25:36;;;;;;;47.72;19.58;;;15.60;93.70;;;;;;4877823;28;88251;-74
2023/07/02 02:28:02;;;;;;;41.83;20.52;;;15.60;93.70;;;;;;4877049;28;88391;-74
2023/07/02 02:30:28;;;;;;;43.15;18.90;;;15.60;93.70;;;;;;4876435;28;87825;-74
2023/07/02 02:32:53;;;;;;;47.78;20.05;;;15.70;93.80;;;;;;4877529;28;87682;-74
2023/07/02 02:35:19;;;;;;;44.90;19.55;;;15.60;93.80;;;;;;4877328;28;87706;-74
2023/07/02 02:37:44;;;;;;;47.25;19.00;;;15.70;93.70;;;;;;4875650;28;88583;-74
2023/07/02 02:40:11;;;;;;;46.35;21.30;;;15.60;93.70;;;;;;4876740;28;88594;-74
2023/07/02 02:42:36;;;;;;;42.38;19.27;;;15.70;93.80;;;;;;4876448;28;87861;-74
2023/07/02 02:45:03;;;;;;;39.67;19.80;;;15.70;93.80;;;;;;4876763;28;87548;-74
2023/07/02 02:47:28;;;;;;;43.53;20.23;;;15.70;93.90;;;;;;4876757;28;89696;-74
2023/07/02 02:49:54;;;;;;;44.22;21.60;;;15.70;93.80;;;;;;4875934;28;89544;-74
2023/07/02 02:52:19;;;;;;;43.90;20.10;;;15.70;93.90;;;;;;4877608;28;87559;-74
2023/07/02 02:54:46;;;;;;;49.40;21.15;;;15.70;93.90;;;;;;4876927;28;87482;-74
2023/07/02 02:57:11;;;;;;;44.88;19.30;;;15.70;93.90;;;;;;4877402;28;88051;-74
2023/07/02 02:59:37;;;;;;;50.45;22.52;;;15.70;93.90;;;;;;4875664;28;88306;-74
2023/07/02 03:02:03;;;;;;;43.97;21.02;;;15.70;93.90;;;;;;4876355;28;87523;-74
2023/07/02 03:04:29;;;;;;;48.88;22.52;;;15.70;94.00;;;;;;4875787;28;87632;-74
2023/07/02 03:06:55;;;;;;;47.85;20.45;;;15.70;94.10;;;;;;4876386;28;87599;-74
2023/07/02 03:09:21;;;;;;;50.53;22.58;;;15.70;94.10;;;;;;4876486;28;88397;-74
2023/07/02 03:11:47;;;;;;;43.42;21.92;;;15.70;94.10;;;;;;4876934;28;88720;-74
2023/07/02 03:14:14;;;;;;;79.00;23.30;;;15.60;94.10;;;;;;4875996;28;87868;-74
2023/07/02 03:16:39;;;;;;;51.22;21.85;;;15.60;94.00;;;;;;4875010;28;87811;-73
2023/07/02 03:19:05;;;;;;;46.63;21.98;;;15.60;94.10;;;;;;4876580;28;87886;-74
2023/07/02 03:21:32;;;;;;;50.13;22.45;;;15.60;94.20;;;;;;4877016;28;87514;-73
2023/07/02 03:23:57;;;;;;;51.38;23.38;;;15.60;94.20;;;;;;4876478;28;87642;-74
2023/07/02 03:26:23;;;;;;;54.90;22.35;;;15.60;94.20;;;;;;4876106;28;88426;-74
2023/07/02 03:28:49;;;;;;;54.15;22.13;;;15.60;94.20;;;;;;4876274;28;89328;-74
2023/07/02 03:31:15;;;;;;;60.40;24.55;;;15.60;94.30;;;;;;4875982;28;87492;-74
2023/07/02 03:33:40;;;;;;;51.83;22.60;;;15.50;94.30;;;;;;4875950;28;88449;-74
2023/07/02 03:36:06;;;;;;;50.80;22.65;;;15.50;94.50;;;;;;4876143;28;89075;-74
2023/07/02 03:38:32;;;;;;;55.10;23.42;;;15.50;94.60;;;;;;4876014;28;90404;-74
2023/07/02 03:40:58;;;;;;;50.22;22.65;;;15.50;94.50;;;;;;4877041;28;87799;-74
2023/07/02 03:43:25;;;;;;;45.80;22.70;;;15.50;94.70;;;;;;4875935;28;87677;-74
2023/07/02 03:45:52;;;;;;;50.22;22.20;;;15.50;94.60;;;;;;4876203;28;88327;-74
2023/07/02 03:48:17;;;;;;;51.25;23.02;;;15.50;94.80;;;;;;4876901;28;87930;-75
2023/07/02 03:50:43;;;;;;;56.05;24.38;;;15.50;94.70;;;;;;4858992;28;87927;-74
2023/07/02 03:53:09;;;;;;;55.58;23.85;;;15.50;94.90;;;;;;4877095;28;87022;-74
2023/07/02 03:55:34;;;;;;;51.05;22.38;;;15.50;94.90;;;;;;4876229;28;88784;-74
2023/07/02 03:58:00;;;;;;;58.42;23.73;;;15.50;94.90;;;;;;4874048;28;89020;-74
2023/07/02 04:00:26;;;;;;;60.88;23.92;;;15.50;95.00;;;;;;4875653;28;88260;-74
2023/07/02 04:02:51;;;;;;;52.97;23.50;;;15.40;95.10;;;;;;4876473;28;87678;-74
2023/07/02 04:05:17;;;;;;;61.30;24.67;;;15.40;95.10;;;;;;4876027;28;88069;-74
2023/07/02 04:07:42;;;;;;;62.05;23.92;;;15.40;95.00;;;;;;4875375;28;88136;-74
2023/07/02 04:10:08;;;;;;;55.22;25.90;;;15.40;95.00;;;;;;4874626;28;87729;-73
2023/07/02 04:12:34;;;;;;;54.22;23.13;;;15.40;95.10;;;;;;4874850;28;87702;-73
2023/07/02 04:14:59;;;;;;;54.88;23.52;;;15.40;95.20;;;;;;4875892;28;87996;-74
2023/07/02 04:17:25;;;;;;;59.20;24.85;;;15.40;95.30;;;;;;4874296;28;88425;-74
2023/07/02 04:19:54;;;;;;;53.67;25.30;;;15.40;95.30;;;;;;4874620;28;87748;-74
2023/07/02 04:22:20;;;;;;;57.78;25.05;;;15.40;95.30;;;;;;4874369;28;87721;-74
2023/07/02 04:24:48;;;;;;;62.00;25.02;;;15.40;95.30;;;;;;4873919;28;89955;-74
2023/07/02 04:27:17;;;;;;;55.75;24.45;;;15.40;95.40;;;;;;4876549;28;90069;-74
2023/07/02 04:29:45;;;;;;;59.28;24.42;;;15.40;95.40;;;;;;4875216;28;87378;-74
2023/07/02 04:32:11;;;;;;;58.40;25.50;;;15.40;95.40;;;;;;4875729;28;87984;-74
2023/07/02 04:34:37;;;;;;;64.97;26.42;;;15.40;95.50;;;;;;4875805;28;87721;-74
2023/07/02 04:37:04;;;;;;;68.00;26.45;;;15.40;95.50;;;;;;4873793;28;88413;-74
2023/07/02 04:39:29;;;;;;;57.95;25.70;;;15.40;95.60;;;;;;4876495;28;87757;-74
2023/07/02 04:41:55;;;;;;;55.58;25.35;;;15.40;95.60;;;;;;4875459;28;87233;-74
2023/07/02 04:44:22;;;;;;;54.97;25.65;;;15.40;95.60;;;;;;4875506;28;88103;-74
2023/07/02 04:46:48;;;;;;;61.20;25.02;;;15.40;95.70;;;;;;4875503;28;89080;-74
2023/07/02 04:49:14;;;;;;;68.20;27.30;;;15.40;95.70;;;;;;4873243;28;88488;-74
2023/07/02 04:51:40;;;;;;;62.28;26.88;;;15.40;95.70;;;;;;4874046;28;87820;-74
2023/07/02 04:54:05;;;;;;;68.10;27.05;;;15.40;95.70;;;;;;4874520;28;88676;-74
2023/07/02 04:56:31;;;;;;;57.83;25.25;;;15.40;95.70;;;;;;4874372;28;88562;-74
2023/07/02 04:58:56;;;;;;;61.72;26.77;;;15.50;95.80;;;;;;4873954;28;87625;-74
2023/07/02 05:01:22;;;;;;;68.35;27.80;;;15.50;95.90;;;;;;4874314;28;87710;-74
2023/07/02 05:03:48;;;;;;;65.82;28.17;;;15.50;95.90;;;;;;4873793;28;88618;-74
2023/07/02 05:06:14;;;;;;;68.28;28.10;;;15.60;95.80;;;;;;4875529;28;88739;-74
2023/07/02 05:08:39;;;;;;;59.47;27.17;;;15.60;95.70;;;;;;4873445;28;87713;-74
2023/07/02 05:11:05;;;;;;;66.53;27.95;;;15.60;95.80;;;;;;4872827;28;87640;-74
2023/07/02 05:13:30;;;;;;;60.45;27.75;;;15.70;95.80;;;;;;4872510;28;89685;-74
2023/07/02 05:15:56;;;;;;;69.90;27.63;;;15.70;95.80;;;;;;4873356;28;88431;-73
2023/07/02 05:18:22;;;;;;;60.20;25.58;;;15.70;95.60;;;;;;4873008;28;88256;-74
2023/07/02 05:20:47;;;;;;;57.53;27.00;;;15.70;95.80;;;;;;4873867;28;87390;-74
2023/07/02 05:23:13;;;;;;;72.22;27.85;;;15.80;95.80;;;;;;4873281;28;88579;-73
2023/07/02 05:25:39;;;;;;;67.65;28.13;;;15.80;95.80;;;;;;4873124;28;87522;-74
2023/07/02 05:28:04;;;;;;;60.75;26.05;;;15.80;95.80;;;;;;4873908;28;87369;-74
2023/07/02 05:30:30;;;;;;;67.32;27.77;;;15.80;95.80;;;;;;4875296;28;87574;-74
2023/07/02 05:32:55;;;;;;;60.40;26.83;;;15.90;95.70;;;;;;4874801;28;93058;-73
2023/07/02 05:35:21;;;;;;;68.15;26.58;;;15.90;95.60;;;;;;4874041;28;88423;-74
2023/07/02 05:37:46;;;;;;;70.63;28.80;;;16.00;95.60;;;;;;4873368;28;88831;-74
2023/07/02 05:40:12;;;;;;;75.72;28.15;;;16.00;95.30;;;;;;4873148;28;87958;-74
2023/07/02 05:42:38;;;;;;;66.93;28.38;;;16.10;95.40;;;;;;4871585;28;88191;-73
2023/07/02 05:45:04;;;;;;;69.68;30.17;;;16.10;95.20;;;;;;4873710;28;87845;-74
2023/07/02 05:47:29;;;;;;;67.25;26.92;;;16.10;95.20;;;;;;4871502;28;87473;-74
2023/07/02 05:49:55;;;;;;;64.30;29.10;;;16.10;95.20;;;;;;4855001;28;89892;-74
2023/07/02 05:52:22;;;;;;;64.82;28.73;;;16.20;95.20;;;;;;4873867;28;94175;-74
2023/07/02 05:54:48;;;;;;;77.22;29.50;;;16.20;95.20;;;;;;4873118;28;88625;-74
2023/07/02 05:57:13;;;;;;;57.65;27.27;;;16.30;95.10;;;;;;4873211;28;88090;-74
2023/07/02 05:59:39;;;;;;;64.45;29.58;;;16.40;94.90;;;;;;4872019;28;87558;-73
2023/07/02 06:02:05;;;;;;;63.40;28.10;;;16.40;94.70;;;;;;4871534;28;90078;-75
2023/07/02 06:04:30;;;;;;;61.38;27.95;;;16.40;94.70;;;;;;4872325;28;88745;-74
2023/07/02 06:06:57;;;;;;;70.95;28.77;;;16.50;94.60;;;;;;4876466;28;87641;-80
2023/07/02 06:09:22;;;;;;;71.03;28.52;;;16.50;94.30;;;;;;4874930;28;90438;-84
2023/07/02 06:11:48;;;;;;;63.70;27.48;;;16.50;94.40;;;;;;4876495;28;88366;-82
2023/07/02 06:14:14;;;;;;;69.57;30.70;;;16.60;94.60;;;;;;4876645;28;88630;-83
2023/07/02 06:16:40;;;;;;;74.00;28.73;;;16.70;94.20;;;;;;4877418;28;87417;-83
2023/07/02 06:19:06;;;;;;;65.30;28.98;;;16.70;93.80;;;;;;4860767;28;90733;-82
2023/07/02 06:21:31;;;;;;;65.68;27.80;;;16.70;93.90;;;;;;4880258;28;87813;-78
2023/07/02 06:23:59;;;;;;;59.88;27.90;;;16.70;94.10;;;;;;4882815;28;87734;-80
2023/07/02 06:26:25;;;;;;;72.72;30.75;;;16.70;93.80;;;;;;4880844;28;88429;-82
2023/07/02 06:28:50;;;;;;;66.35;30.15;;;16.70;93.70;;;;;;4864359;28;89303;-77
2023/07/02 06:31:16;;;;;;;72.30;30.95;;;16.80;93.80;;;;;;4880664;28;88707;-81
2023/07/02 06:33:42;;;;;;;74.57;31.13;;;16.80;93.90;;;;;;4880268;28;87916;-79
2023/07/02 06:36:08;;;;;;;69.85;29.80;;;16.90;93.70;;;;;;4879503;28;87327;-78
2023/07/02 06:38:33;;;;;;;75.05;30.10;;;16.90;93.60;;;;;;4881653;28;87875;-78
2023/07/02 06:40:59;;;;;;;75.05;30.00;;;17.00;93.50;;;;;;4881684;28;88323;-78
2023/07/02 06:43:25;;;;;;;65.53;29.35;;;17.10;93.50;;;;;;4878953;28;89048;-79
2023/07/02 06:45:50;;;;;;;72.00;31.23;;;17.10;93.20;;;;;;4877963;28;88043;-79
2023/07/02 06:48:17;;;;;;;67.15;29.85;;;17.20;93.10;;;;;;4879960;28;87826;-79
2023/07/02 06:50:45;;;;;;;70.82;30.80;;;17.30;93.20;;;;;;4879495;28;89813;-78
2023/07/02 06:53:10;;;;;;;62.17;29.35;;;17.30;93.00;;;;;;4861867;28;91071;-79
2023/07/02 06:55:36;;;;;;;69.38;28.35;;;17.40;93.00;;;;;;4879943;28;87925;-79
2023/07/02 06:58:02;;;;;;;65.28;29.38;;;17.40;92.80;;;;;;4879732;28;87882;-80
2023/07/02 07:00:27;;;;;;;66.82;30.40;;;17.50;92.90;;;;;;4880238;28;88768;-80
2023/07/02 07:02:53;;;;;;;72.65;28.58;;;17.60;92.40;;;;;;4879047;28;88400;-80
2023/07/02 07:05:18;;;;;;;68.95;29.27;;;17.60;92.30;;;;;;4878963;28;87774;-79
2023/07/02 07:07:44;;;;;;;64.32;27.08;;;17.70;91.90;;;;;;4879510;28;87957;-79
2023/07/02 07:10:09;;;;;;;61.08;28.48;;;17.70;91.60;;;;;;4877942;28;88609;-79
2023/07/02 07:12:36;;;;;;;63.70;27.85;;;17.80;91.60;;;;;;4877492;28;88711;-79
2023/07/02 07:15:02;;;;;;;62.83;27.08;;;17.80;91.40;;;;;;4877791;28;88483;-77
2023/07/02 07:17:28;;;;;;;63.88;27.50;;;17.70;91.10;;;;;;4877536;28;88489;-78
2023/07/02 07:19:53;;;;;;;69.00;29.00;;;17.80;91.40;;;;;;4877813;28;88616;-78
2023/07/02 07:22:19;;;;;;;60.88;28.27;;;17.80;91.10;;;;;;4878231;28;87987;-77
2023/07/02 07:24:44;;;;;;;58.17;26.63;;;17.90;91.20;;;;;;4877752;28;87829;-76
2023/07/02 07:27:10;;;;;;;60.22;26.88;;;18.00;91.60;;;;;;4879179;28;87857;-76
2023/07/02 07:29:35;;;;;;;62.50;27.65;;;18.00;91.10;;;;;;4879006;28;89215;-76
2023/07/02 07:32:02;;;;;;;65.07;28.63;;;18.10;91.20;;;;;;4878264;28;86731;-76
2023/07/02 07:34:28;;;;;;;62.65;27.73;;;18.20;90.50;;;;;;4878413;28;87834;-76
2023/07/02 07:36:53;;;;;;;54.25;25.77;;;18.20;90.90;;;;;;4878460;28;87921;-76
2023/07/02 07:39:19;;;;;;;57.97;25.98;;;18.30;90.70;;;;;;4878052;28;89632;-77
2023/07/02 07:41:50;;;;;;;58.38;26.98;;;18.30;90.60;;;;;;4878028;28;89713;-76
2023/07/02 07:44:16;;;;;;;58.42;27.65;;;18.40;90.30;;;;;;4877063;28;87710;-76
2023/07/02 07:46:41;;;;;;;58.30;25.60;;;18.40;90.30;;;;;;4878258;28;87746;-76
2023/07/02 07:49:07;;;;;;;60.58;26.10;;;18.50;90.10;;;;;;4878344;28;88186;-80
2023/07/02 07:51:35;;;;;;;56.75;26.15;;;18.60;89.90;;;;;;4878914;28;88409;-81
2023/07/02 07:54:01;;;;;;;54.28;25.20;;;18.70;89.40;;;;;;4879372;28;87634;-78
2023/07/02 07:56:27;;;;;;;56.05;25.92;;;18.70;89.50;;;;;;4878838;28;87390;-81
2023/07/02 07:58:52;;;;;;;58.80;27.23;;;18.80;89.50;;;;;;4878012;28;89052;-80
2023/07/02 08:01:18;;;;;;;58.22;26.00;;;18.80;88.30;;;;;;4876618;28;89864;-82
2023/07/02 08:03:43;;;;;;;55.25;26.05;;;18.90;89.50;;;;;;4878974;28;88625;-82
2023/07/02 08:06:09;;;;;;;48.20;23.30;;;19.00;87.80;;;;;;4879770;28;87494;-83
2023/07/02 08:08:35;;;;;;;55.15;26.50;;;19.10;87.50;;;;;;4878062;28;87791;-82
2023/07/02 08:11:00;;;;;;;57.47;25.92;;;19.20;87.50;;;;;;4878383;28;87872;-79
2023/07/02 08:13:26;;;;;;;54.30;26.80;;;19.20;87.10;;;;;;4879292;28;87725;-83
2023/07/02 08:15:51;;;;;;;52.20;25.42;;;19.40;88.60;;;;;;4878739;28;87717;-80
2023/07/02 08:18:17;;;;;;;50.92;24.42;;;19.40;87.00;;;;;;4878827;28;88058;-79
2023/07/02 08:20:42;;;;;;;46.90;20.20;;;19.60;86.10;;;;;;4879128;28;89014;-80
2023/07/02 08:23:08;;;;;;;43.00;19.98;;;19.60;81.80;;;;;;4879577;28;87812;-80
2023/07/02 08:25:33;;;;;;;42.33;19.38;;;19.70;81.20;;;;;;4878630;28;87920;-82
2023/07/02 08:27:59;;;;;;;40.92;19.00;;;19.70;80.30;;;;;;4878535;28;89724;-83
2023/07/02 08:30:25;;;;;;;48.10;21.08;;;19.80;81.30;;;;;;4880234;28;89465;-83
2023/07/02 08:32:50;;;;;;;47.90;19.92;;;19.90;80.10;;;;;;4879057;28;88192;-83
2023/07/02 08:35:16;;;;;;;36.63;17.27;;;20.00;80.90;;;;;;4878209;28;87344;-84
2023/07/02 08:37:41;;;;;;;44.55;20.15;;;20.10;79.10;;;;;;4878984;28;88608;-81
2023/07/02 08:40:19;;;;;;;40.30;18.25;;;20.10;77.40;;;;;;4877811;28;88581;-82
2023/07/02 08:42:48;;;;;;;42.85;19.42;;;20.00;79.30;;;;;;4878289;28;87602;-81
2023/07/02 08:45:15;;;;;;;42.40;18.10;;;20.10;80.00;;;;;;4877963;28;87487;-82
2023/07/02 08:47:41;;;;;;;43.60;18.58;;;20.10;79.20;;;;;;4878155;28;88774;-82
2023/07/02 08:50:07;;;;;;;40.67;18.13;;;20.20;77.20;;;;;;4877890;28;89230;-79
2023/07/02 08:52:33;;;;;;;40.90;18.10;;;20.20;75.50;;;;;;4877738;28;88850;-81
2023/07/02 08:54:59;;;;;;;37.95;17.63;;;20.20;76.00;;;;;;4878881;28;87432;-83
2023/07/02 08:57:24;;;;;;;40.72;17.55;;;20.10;76.50;;;;;;4878888;28;87511;-81
2023/07/02 08:59:51;;;;;;;40.28;17.05;;;20.20;75.80;;;;;;4877194;28;88407;-76
2023/07/02 09:02:18;;;;;;;40.38;18.23;;;20.30;75.50;;;;;;4860759;28;87664;-81
2023/07/02 09:04:43;;;;;;;35.47;16.17;;;20.30;73.70;;;;;;4884171;28;87701;-82
2023/07/02 09:07:10;;;;;;;36.63;16.35;;;20.20;71.10;;;;;;4877101;28;91101;-81
2023/07/02 09:09:50;;;;;;;35.35;15.57;;;20.20;73.00;;;;;;4878046;28;88693;-80
2023/07/02 09:12:29;;;;;;;42.72;16.23;;;20.30;72.30;;;;;;4879355;28;87669;-81
2023/07/02 09:15:05;;;;;;;31.33;14.23;;;20.30;72.80;;;;;;4878453;28;87763;-81
2023/07/02 09:17:33;;;;;;;31.27;13.15;;;20.40;72.00;;;;;;4877309;28;89643;-81
2023/07/02 09:20:01;;;;;;;27.00;12.45;;;20.40;69.20;;;;;;4878005;28;89775;-81
2023/07/02 09:22:27;;;;;;;36.08;12.63;;;20.40;68.20;;;;;;4860800;28;87842;-82
2023/07/02 09:24:54;;;;;;;27.95;12.10;;;20.40;69.80;;;;;;4878065;28;87689;-81
2023/07/02 09:27:20;;;;;;;27.85;11.35;;;20.70;70.90;;;;;;4879107;28;88362;-81
2023/07/02 09:29:53;;;;;;;27.10;11.65;;;20.90;69.00;;;;;;4877437;28;88603;-81
2023/07/02 09:32:29;;;;;;;24.30;10.68;;;21.10;62.90;;;;;;4877669;28;87677;-80
2023/07/02 09:34:57;;;;;;;29.13;11.43;;;21.30;60.40;;;;;;4877318;28;87831;-79
2023/07/02 09:37:23;;;;;;;24.38;11.23;;;21.40;60.90;;;;;;4876882;28;87932;-76
2023/07/02 09:39:52;;;;;;;25.05;10.40;;;21.50;61.60;;;;;;4878141;28;88752;-81
2023/07/02 09:42:19;;;;;;;23.60;11.07;;;21.40;60.00;;;;;;4861720;28;88504;-82
2023/07/02 09:44:46;;;;;;;29.98;10.40;;;21.40;60.70;;;;;;4878117;28;87183;-81
2023/07/02 09:47:12;;;;;;;22.20;10.05;;;21.40;59.60;;;;;;4878622;28;88983;-82
2023/07/02 09:49:52;;;;;;;29.50;10.40;;;21.30;61.00;;;;;;4877991;28;87601;-82
2023/07/02 09:52:18;;;;;;;24.50;9.77;;;21.50;59.20;;;;;;4878304;28;87583;-82
2023/07/02 09:54:44;;;;;;;26.08;10.32;;;21.60;57.90;;;;;;4880360;28;87159;-81
2023/07/02 09:57:10;;;;;;;21.63;9.88;;;21.70;56.50;;;;;;4881098;28;87747;-80
2023/07/02 09:59:37;;;;;;;20.40;9.60;;;21.70;58.80;;;;;;4880855;28;88357;-80
2023/07/02 10:02:03;;;;;;;23.25;9.32;;;21.70;57.20;;;;;;4880931;28;87483;-81
2023/07/02 10:04:54;;;;;;;23.00;10.23;;;21.60;56.40;;;;;;4884360;28;87696;-81
2023/07/02 10:07:28;;;;;;;26.92;9.85;;;21.50;56.20;;;;;;4878630;28;89131;-82
2023/07/02 10:09:54;;;;;;;23.70;9.95;;;21.30;56.10;;;;;;4882185;28;88987;-83
2023/07/02 10:12:21;;;;;;;19.70;9.10;;;21.20;56.20;;;;;;4883671;28;87641;-83
2023/07/02 10:14:49;;;;;;;28.63;10.93;;;21.10;57.70;;;;;;4880833;28;89020;-82
2023/07/02 10:17:32;;;;;;;27.45;10.32;;;21.00;58.70;;;;;;4881587;28;89235;-82
2023/07/02 10:20:11;;;;;;;24.95;9.85;;;21.10;59.20;;;;;;4881118;28;87624;-82
2023/07/02 10:22:47;;;;;;;18.20;9.57;;;21.10;59.10;;;;;;4882511;28;87167;-81
2023/07/02 10:25:30;;;;;;;25.10;11.25;;;21.10;59.70;;;;;;4882529;28;88056;-83
2023/07/02 10:27:56;;;;;;;24.08;11.85;;;21.10;60.20;;;;;;4882205;28;88171;-82
2023/07/02 10:30:35;;;;;;;26.00;11.88;;;21.10;61.70;;;;;;4882297;28;87517;-82
2023/07/02 10:33:17;;;;;;;26.33;11.77;;;21.10;62.20;;;;;;4882790;28;88758;-81
2023/07/02 10:35:46;;;;;;;27.48;11.80;;;21.20;61.80;;;;;;4881365;28;87990;-81
2023/07/02 10:38:25;;;;;;;26.55;12.27;;;21.20;61.60;;;;;;4881551;28;88909;-79
2023/07/02 10:40:55;;;;;;;31.48;11.88;;;21.30;63.00;;;;;;4862161;28;91294;-81
2023/07/02 10:43:31;;;;;;;27.30;11.82;;;21.50;60.90;;;;;;4876638;28;87529;-82
2023/07/02 10:45:59;;;;;;;27.58;11.27;;;21.60;61.60;;;;;;4879269;28;87782;-81
2023/07/02 10:48:25;;;;;;;24.13;11.13;;;21.70;59.50;;;;;;4876863;28;88579;-80
2023/07/02 10:50:50;;;;;;;25.30;11.35;;;21.70;58.70;;;;;;4877116;28;87711;-80
2023/07/02 10:53:18;;;;;;;27.55;11.27;;;21.70;59.30;;;;;;4878205;28;87765;-81
2023/07/02 10:55:44;;;;;;;27.88;11.77;;;21.70;60.00;;;;;;4878026;28;87855;-81
2023/07/02 10:58:11;;;;;;;24.15;11.35;;;21.80;58.50;;;;;;4875970;28;89481;-82
2023/07/02 11:00:50;;;;;;;28.85;12.02;;;21.80;58.80;;;;;;4879502;28;89273;-82
2023/07/02 11:03:23;;;;;;;28.70;11.18;;;21.70;59.60;;;;;;4882047;28;87809;-82
2023/07/02 11:05:50;;;;;;;29.48;12.25;;;21.60;59.30;;;;;;4880245;28;87973;-80
2023/07/02 11:08:16;;;;;;;28.55;12.15;;;21.50;59.20;;;;;;4877823;28;88281;-81
2023/07/02 11:10:41;;;;;;;34.67;12.13;;;21.50;60.00;;;;;;4879949;28;88195;-79
2023/07/02 11:13:17;;;;;;;24.98;11.70;;;21.50;62.10;;;;;;4863245;28;87327;-78
2023/07/02 11:15:47;;;;;;;31.10;12.32;;;21.60;61.10;;;;;;4880296;28;87101;-78
2023/07/02 11:18:18;;;;;;;29.25;13.05;;;21.70;60.20;;;;;;4864649;28;89726;-77
2023/07/02 11:20:45;;;;;;;30.45;12.65;;;21.90;61.30;;;;;;4880536;28;87661;-77
2023/07/02 11:23:24;;;;;;;29.35;13.23;;;22.10;61.10;;;;;;4879022;28;88569;-78
2023/07/02 11:26:00;;;;;;;29.73;12.88;;;22.30;59.20;;;;;;4880047;28;87560;-77
2023/07/02 11:28:26;;;;;;;25.20;13.15;;;22.40;59.60;;;;;;4880140;28;88617;-78
2023/07/02 11:30:52;;;;;;;30.60;12.85;;;22.50;59.00;;;;;;4881011;28;88460;-79
2023/07/02 11:33:18;;;;;;;31.20;13.02;;;22.50;58.30;;;;;;4880943;28;87484;-80
2023/07/02 11:35:43;;;;;;;27.65;12.95;;;22.40;58.50;;;;;;4879889;28;87847;-76
2023/07/02 11:38:12;;;;;;;25.48;12.00;;;22.30;57.30;;;;;;4879739;28;88961;-77
2023/07/02 11:40:40;;;;;;;26.50;11.18;;;22.10;57.60;;;;;;4862516;28;89853;-78
2023/07/02 11:43:06;;;;;;;25.65;11.18;;;22.00;57.70;;;;;;4878810;28;87169;-78
2023/07/02 11:45:32;;;;;;;26.08;11.70;;;22.00;57.40;;;;;;4880395;28;87994;-78
2023/07/02 11:47:57;;;;;;;27.23;12.52;;;22.00;59.10;;;;;;4880594;28;89559;-79
2023/07/02 11:50:23;;;;;;;24.45;11.85;;;22.00;58.90;;;;;;4863237;28;91088;-78
2023/07/02 11:52:49;;;;;;;31.05;13.27;;;22.00;59.10;;;;;;4863977;28;87588;-78
2023/07/02 11:55:14;;;;;;;32.10;12.90;;;21.90;59.80;;;;;;4884764;28;89497;-77
2023/07/02 11:57:40;;;;;;;26.75;12.30;;;22.10;59.10;;;;;;4881178;28;88020;-78
2023/07/02 12:00:06;;;;;;;30.08;12.70;;;22.20;59.40;;;;;;4880463;28;88499;-78
2023/07/02 12:02:32;;;;;;;24.60;11.85;;;22.40;61.10;;;;;;4879282;28;87252;-77
2023/07/02 12:04:57;;;;;;;25.55;12.07;;;22.60;59.00;;;;;;4878792;28;87450;-77
2023/07/02 12:07:25;;;;;;;24.45;11.05;;;22.80;56.90;;;;;;4879023;28;87658;-77
2023/07/02 12:09:50;;;;;;;21.60;10.10;;;22.90;56.10;;;;;;4877402;28;89007;-77
2023/07/02 12:12:16;;;;;;;27.58;11.05;;;22.90;55.80;;;;;;4878013;28;88735;-77
2023/07/02 12:14:43;;;;;;;27.88;11.55;;;22.80;55.40;;;;;;4876696;28;87365;-78
2023/07/02 12:17:12;;;;;;;24.00;10.80;;;22.90;54.90;;;;;;4877828;28;87788;-77
2023/07/02 12:19:40;;;;;;;27.90;11.52;;;23.00;54.70;;;;;;4860226;28;91803;-77
2023/07/02 12:22:07;;;;;;;26.25;10.63;;;22.90;56.30;;;;;;4878050;28;88026;-77
2023/07/02 12:24:32;;;;;;;27.95;11.98;;;22.90;55.20;;;;;;4877208;28;88084;-80
2023/07/02 12:26:58;;;;;;;32.63;11.88;;;22.90;55.20;;;;;;4878817;28;88634;-80